createdAt,value
2023-02-04T00:03:28.883Z,97676.53
2023-02-04T00:07:29.706Z,97681.28
2023-02-04T00:11:32.676Z,97678.38
2023-02-04T00:15:35.664Z,97696.56
2023-02-04T00:19:41.511Z,97690.69
2023-02-04T00:23:53.563Z,97684.75
2023-02-04T00:27:54.717Z,97690.66
2023-02-04T00:32:02.009Z,97719.22
2023-02-04T00:36:05.216Z,97714.47
2023-02-04T00:40:07.332Z,97735.38
2023-02-04T00:44:08.344Z,97726.38
2023-02-04T00:48:09.234Z,97727.78
2023-02-04T00:52:14.942Z,97746.97
2023-02-04T00:56:16.093Z,97747.84
2023-02-04T01:00:21.488Z,97723.88
2023-02-04T01:04:26.281Z,97746.59
2023-02-04T01:08:36.533Z,97765.88
2023-02-04T01:12:39.470Z,97757.56
2023-02-04T01:16:42.482Z,97752.59
2023-02-04T01:20:46.177Z,97757.75
2023-02-04T01:24:52.027Z,97772.03
2023-02-04T01:29:13.487Z,97780.19
2023-02-04T01:33:14.280Z,97775.38
2023-02-04T01:37:25.440Z,97770.38
2023-02-04T01:41:43.563Z,97784.38
2023-02-04T01:45:48.906Z,97794.06
2023-02-04T01:49:56.301Z,97774.31
2023-02-04T01:53:57.484Z,97792.47
2023-02-04T01:58:02.548Z,97760.59
2023-02-04T02:02:06.222Z,97812.31
2023-02-04T02:06:09.360Z,97790.53
2023-02-04T02:10:14.483Z,97813.69
2023-02-04T02:14:21.915Z,97808.97
2023-02-04T02:18:25.378Z,97806.00
2023-02-04T02:22:38.443Z,97821.94
2023-02-04T02:26:42.542Z,97827.91
2023-02-04T02:30:49.272Z,97823.50
2023-02-04T02:34:52.418Z,97839.91
2023-02-04T02:38:53.388Z,97823.03
2023-02-04T02:42:58.624Z,97830.59
2023-02-04T02:46:59.401Z,97829.41
2023-02-04T02:51:00.544Z,97813.78
2023-02-04T02:55:01.298Z,97855.56
2023-02-04T02:59:23.751Z,97857.25
2023-02-04T03:03:30.971Z,97857.34
2023-02-04T03:07:31.698Z,97840.84
2023-02-04T03:11:32.793Z,97862.06
2023-02-04T03:15:40.249Z,97874.72
2023-02-04T03:19:42.680Z,97837.88
2023-02-04T03:23:45.312Z,97891.69
2023-02-04T03:27:47.809Z,97878.06
2023-02-04T03:31:52.824Z,97888.22
2023-02-04T03:35:56.035Z,97889.66
2023-02-04T03:39:56.849Z,97911.84
2023-02-04T03:43:59.524Z,97893.13
2023-02-04T03:48:04.569Z,97918.09
2023-02-04T03:52:08.196Z,97906.53
2023-02-04T03:56:10.605Z,97948.06
2023-02-04T04:00:13.843Z,97938.69
2023-02-04T04:04:17.303Z,97979.72
2023-02-04T04:08:18.507Z,97910.91
2023-02-04T04:12:20.347Z,97999.78
2023-02-04T04:16:20.990Z,97992.34
2023-02-04T04:20:25.875Z,97917.81
2023-02-04T04:24:27.884Z,97971.13
2023-02-04T04:28:28.662Z,98015.47
2023-02-04T04:32:29.174Z,98017.81
2023-02-04T04:36:32.336Z,98023.41
2023-02-04T04:40:34.287Z,97998.56
2023-02-04T04:44:35.418Z,98049.63
2023-02-04T04:48:36.454Z,98068.22
2023-02-04T04:52:41.872Z,98114.94
2023-02-04T04:56:42.208Z,98127.06
2023-02-04T05:00:43.601Z,98133.31
2023-02-04T05:04:44.907Z,98107.00
2023-02-04T05:08:51.099Z,98139.84
2023-02-04T05:12:52.624Z,98130.13
2023-02-04T05:16:55.643Z,98157.53
2023-02-04T05:20:58.198Z,98150.16
2023-02-04T05:25:04.557Z,98112.56
2023-02-04T05:29:10.432Z,98159.19
2023-02-04T05:33:11.090Z,98182.47
2023-02-04T05:37:15.753Z,98180.06
2023-02-04T05:41:19.119Z,98156.84
2023-02-04T05:45:23.684Z,98176.53
2023-02-04T05:49:25.221Z,98215.00
2023-02-04T05:53:26.272Z,98215.44
2023-02-04T05:57:29.885Z,98239.25
2023-02-04T06:01:31.972Z,98241.84
2023-02-04T06:05:37.808Z,98240.06
2023-02-04T06:09:38.669Z,98263.16
2023-02-04T06:13:42.484Z,98270.31
2023-02-04T06:17:44.067Z,98275.69
2023-02-04T06:21:44.461Z,98267.75
2023-02-04T06:25:45.402Z,98288.28
2023-02-04T06:29:50.233Z,98299.41
2023-02-04T06:33:51.460Z,98256.38
2023-02-04T06:37:54.114Z,98324.53
2023-02-04T06:41:56.491Z,98334.88
2023-02-04T06:45:59.634Z,98354.53
2023-02-04T06:50:02.203Z,98361.09
2023-02-04T06:54:03.519Z,98366.16
2023-02-04T06:58:03.988Z,98378.31
2023-02-04T07:02:10.044Z,98381.13
2023-02-04T07:06:10.846Z,98393.13
2023-02-04T07:10:12.774Z,98410.91
2023-02-04T07:14:15.576Z,98431.59
2023-02-04T07:18:20.120Z,98421.81
2023-02-04T07:22:21.160Z,98433.44
2023-02-04T07:26:22.842Z,98448.13
2023-02-04T07:30:24.799Z,98444.63
2023-02-04T07:34:28.382Z,98428.59
2023-02-04T07:38:30.027Z,98478.84
2023-02-04T07:42:30.824Z,98474.41
2023-02-04T07:46:43.336Z,98460.91
2023-02-04T07:50:49.326Z,98468.22
2023-02-04T07:54:49.888Z,98472.56
2023-02-04T07:58:53.636Z,98441.66
2023-02-04T08:02:56.805Z,98441.69
2023-02-04T08:07:00.954Z,98508.38
2023-02-04T08:11:09.027Z,98504.91
2023-02-04T08:15:13.222Z,98489.53
2023-02-04T08:19:18.998Z,98489.53
2023-02-04T08:23:22.870Z,98533.81
2023-02-04T08:27:23.805Z,98441.72
2023-02-04T08:31:24.658Z,98496.09
2023-02-04T08:35:25.565Z,98531.84
2023-02-04T08:39:29.718Z,98549.81
2023-02-04T08:43:31.337Z,98547.19
2023-02-04T08:47:34.395Z,98535.16
2023-02-04T08:51:37.503Z,98554.75
2023-02-04T08:55:40.846Z,98543.84
2023-02-04T08:59:41.347Z,98537.38
2023-02-04T09:03:42.473Z,98574.50
2023-02-04T09:07:48.332Z,98558.19
2023-02-04T09:11:53.055Z,98588.66
2023-02-04T09:15:55.626Z,98557.50
2023-02-04T09:19:56.740Z,98555.44
2023-02-04T09:24:04.360Z,98548.00
2023-02-04T09:28:10.233Z,98592.75
2023-02-04T09:32:17.557Z,98581.38
2023-02-04T09:36:18.974Z,98580.28
2023-02-04T09:40:22.784Z,98605.59
2023-02-04T09:44:30.774Z,98638.22
2023-02-04T09:48:31.808Z,98655.28
2023-02-04T09:52:34.167Z,98664.78
2023-02-04T09:56:35.030Z,98644.91
2023-02-04T10:00:43.888Z,98665.81
2023-02-04T10:04:44.729Z,98663.41
2023-02-04T10:08:47.921Z,98662.78
2023-02-04T10:12:56.852Z,98669.19
2023-02-04T10:17:04.986Z,98663.59
2023-02-04T10:21:21.258Z,98646.84
2023-02-04T10:25:25.481Z,98683.78
2023-02-04T10:29:27.851Z,98683.75
2023-02-04T10:33:31.957Z,98680.06
2023-02-04T10:37:33.512Z,98654.22
2023-02-04T10:41:38.788Z,98685.41
2023-02-04T10:45:39.641Z,98686.03
2023-02-04T10:49:43.274Z,98688.06
2023-02-04T10:53:56.193Z,98670.75
2023-02-04T10:58:02.382Z,98689.16
2023-02-04T11:02:19.642Z,98695.97
2023-02-04T11:06:27.371Z,98671.38
2023-02-04T11:10:35.262Z,98664.84
2023-02-04T11:14:35.767Z,98671.44
2023-02-04T11:18:50.376Z,98681.78
2023-02-04T11:22:54.886Z,98686.34
2023-02-04T11:27:09.300Z,98686.06
2023-02-04T11:31:32.065Z,98683.84
2023-02-04T11:35:34.078Z,98683.69
2023-02-04T11:39:42.565Z,98691.81
2023-02-04T11:43:43.261Z,98658.06
2023-02-04T11:47:46.351Z,98694.09
2023-02-04T11:51:47.930Z,98700.72
2023-02-04T11:55:51.141Z,98670.44
2023-02-04T11:59:51.857Z,98665.25
2023-02-04T12:04:01.322Z,98677.53
2023-02-04T12:08:17.336Z,98666.25
2023-02-04T12:12:28.924Z,98677.53
2023-02-04T12:16:30.671Z,98695.59
2023-02-04T12:20:31.467Z,98695.75
2023-02-04T12:24:32.021Z,98696.06
2023-02-04T12:28:35.226Z,98679.06
2023-02-04T12:32:37.918Z,98704.84
2023-02-04T12:36:38.780Z,98705.38
2023-02-04T12:40:43.485Z,98704.03
2023-02-04T12:44:47.556Z,98688.59
2023-02-04T12:48:50.610Z,98694.84
2023-02-04T12:52:53.914Z,98655.84
2023-02-04T12:56:58.196Z,98716.81
2023-02-04T13:01:04.155Z,98705.53
2023-02-04T13:05:05.024Z,98715.56
2023-02-04T13:09:06.083Z,98694.69
2023-02-04T13:13:07.648Z,98713.63
2023-02-04T13:17:11.980Z,98693.09
2023-02-04T13:21:12.595Z,98669.75
2023-02-04T13:25:14.909Z,98674.72
2023-02-04T13:29:17.906Z,98695.13
2023-02-04T13:33:21.017Z,98693.09
2023-02-04T13:37:23.645Z,98695.09
2023-02-04T13:41:23.988Z,98708.81
2023-02-04T13:45:25.953Z,98705.41
2023-02-04T13:49:30.490Z,98676.91
2023-02-04T13:53:32.031Z,98703.66
2023-02-04T13:57:33.356Z,98664.00
2023-02-04T14:01:33.951Z,98714.31
2023-02-04T14:05:38.561Z,98709.09
2023-02-04T14:09:41.085Z,98725.16
2023-02-04T14:13:41.628Z,98620.91
2023-02-04T14:17:44.519Z,98736.06
2023-02-04T14:21:50.349Z,98732.28
2023-02-04T14:25:50.827Z,98703.97
2023-02-04T14:29:51.324Z,98737.28
2023-02-04T14:33:52.332Z,98734.25
2023-02-04T14:37:55.712Z,98733.50
2023-02-04T14:41:56.356Z,98721.03
2023-02-04T14:45:57.353Z,98697.53
2023-02-04T14:50:00.978Z,98727.66
2023-02-04T14:54:03.921Z,98731.94
2023-02-04T14:58:04.942Z,98715.09
2023-02-04T15:02:07.206Z,98743.84
2023-02-04T15:06:13.489Z,98757.88
2023-02-04T15:10:18.156Z,98763.09
2023-02-04T15:14:19.036Z,98698.97
2023-02-04T15:18:20.504Z,98776.34
2023-02-04T15:22:21.180Z,98779.34
2023-02-04T15:26:25.195Z,98777.47
2023-02-04T15:30:26.442Z,98775.47
2023-02-04T15:34:27.298Z,98767.69
2023-02-04T15:38:28.324Z,98782.97
2023-02-04T15:42:33.460Z,98754.66
2023-02-04T15:46:35.026Z,98793.91
2023-02-04T15:50:38.554Z,98784.91
2023-02-04T15:54:40.266Z,98780.50
2023-02-04T15:58:43.321Z,98769.88
2023-02-04T16:02:44.535Z,98789.25
2023-02-04T16:06:58.054Z,98787.50
2023-02-04T16:10:59.635Z,98766.59
2023-02-04T16:15:02.875Z,98784.03
2023-02-04T16:19:03.891Z,98822.03
2023-02-04T16:23:04.451Z,98806.00
2023-02-04T16:27:04.732Z,98795.88
2023-02-04T16:31:09.857Z,98825.38
2023-02-04T16:35:12.121Z,98816.63
2023-02-04T16:39:14.154Z,98828.59
2023-02-04T16:43:14.875Z,98839.09
2023-02-04T16:47:18.007Z,98817.19
2023-02-04T16:51:20.631Z,98827.13
2023-02-04T16:55:21.309Z,98824.56
2023-02-04T16:59:21.921Z,98829.59
2023-02-04T17:03:25.186Z,98851.66
2023-02-04T17:07:25.811Z,98854.88
2023-02-04T17:11:33.139Z,98860.19
2023-02-04T17:15:33.991Z,98872.81
2023-02-04T17:19:47.257Z,98823.19
2023-02-04T17:23:48.194Z,98873.94
2023-02-04T17:27:50.710Z,98877.31
2023-02-04T17:31:53.137Z,98848.31
2023-02-04T17:35:56.816Z,98853.88
2023-02-04T17:39:57.203Z,98856.63
2023-02-04T17:43:59.115Z,98841.28
2023-02-04T17:48:00.155Z,98884.19
2023-02-04T17:52:04.558Z,98877.84
2023-02-04T17:56:06.434Z,98889.78
2023-02-04T18:00:17.326Z,98887.22
2023-02-04T18:04:18.163Z,98824.50
2023-02-04T18:08:25.067Z,98893.22
2023-02-04T18:12:28.674Z,98892.09
2023-02-04T18:16:34.059Z,98896.72
2023-02-04T18:20:37.871Z,98899.31
2023-02-04T18:24:45.178Z,98895.13
2023-02-04T18:28:50.451Z,98886.22
2023-02-04T18:32:53.596Z,98859.25
2023-02-04T18:36:55.386Z,98867.16
2023-02-04T18:41:18.476Z,98856.69
2023-02-04T18:45:28.592Z,98850.00
2023-02-04T18:49:33.501Z,98753.50
2023-02-04T18:53:40.773Z,98791.03
2023-02-04T18:57:47.498Z,98835.47
2023-02-04T19:01:51.446Z,98844.63
2023-02-04T19:05:53.663Z,98857.91
2023-02-04T19:09:55.031Z,98882.47
2023-02-04T19:14:05.184Z,98822.81
2023-02-04T19:18:25.741Z,98893.59
2023-02-04T19:22:40.613Z,98772.53
2023-02-04T19:26:56.396Z,98851.38
2023-02-04T19:31:04.450Z,98845.69
2023-02-04T19:35:22.867Z,98876.84
2023-02-04T19:39:39.146Z,98904.91
2023-02-04T19:43:45.897Z,98910.28
2023-02-04T19:47:56.010Z,98923.38
2023-02-04T19:52:02.182Z,98846.00
2023-02-04T19:56:04.664Z,98910.44
2023-02-04T20:00:06.308Z,98878.69
2023-02-04T20:04:23.600Z,98894.44
2023-02-04T20:08:55.127Z,98919.91
2023-02-04T20:13:02.695Z,98833.78
2023-02-04T20:17:14.083Z,98915.94
2023-02-04T20:21:18.370Z,98925.81
2023-02-04T20:25:49.221Z,98875.78
2023-02-04T20:29:58.930Z,98901.38
2023-02-04T20:34:03.606Z,98949.66
2023-02-04T20:38:20.578Z,98901.88
2023-02-04T20:42:48.293Z,98951.91
2023-02-04T20:46:52.872Z,98954.25
2023-02-04T20:50:58.761Z,98950.94
2023-02-04T20:55:07.002Z,98961.22
2023-02-04T20:59:37.572Z,98970.47
2023-02-04T21:03:47.846Z,98937.06
2023-02-04T21:07:49.114Z,98814.78
2023-02-04T21:11:56.295Z,98956.72
2023-02-04T21:16:02.145Z,98847.53
2023-02-04T21:20:02.957Z,98954.97
2023-02-04T21:24:13.793Z,98868.38
2023-02-04T21:28:18.756Z,98831.59
2023-02-04T21:32:25.954Z,98822.38
2023-02-04T21:36:28.323Z,98951.38
2023-02-04T21:40:29.966Z,98931.69
2023-02-04T21:44:33.916Z,98968.44
2023-02-04T21:48:41.761Z,98926.22
2023-02-04T21:52:45.098Z,98970.94
2023-02-04T21:56:48.724Z,98979.16
2023-02-04T22:00:54.224Z,98919.72
2023-02-04T22:04:56.415Z,98975.56
2023-02-04T22:08:57.306Z,98966.63
2023-02-04T22:12:58.094Z,98952.91
2023-02-04T22:17:01.351Z,98973.09
2023-02-04T22:21:02.241Z,98974.94
2023-02-04T22:25:02.649Z,98977.50
2023-02-04T22:29:03.481Z,98879.16
2023-02-04T22:33:08.051Z,98983.34
2023-02-04T22:37:08.421Z,98981.50
2023-02-04T22:41:09.262Z,98962.78
2023-02-04T22:45:12.076Z,98939.72
2023-02-04T22:49:19.664Z,98952.50
2023-02-04T22:53:20.120Z,98912.66
2023-02-04T22:57:20.949Z,98964.59
2023-02-04T23:01:21.889Z,98954.66
2023-02-04T23:05:25.041Z,98967.47
2023-02-04T23:09:25.749Z,98968.03
2023-02-04T23:13:26.541Z,98959.19
2023-02-04T23:17:27.406Z,98957.84
2023-02-04T23:21:30.794Z,98886.59
2023-02-04T23:25:32.065Z,98941.25
2023-02-04T23:29:35.864Z,98976.59
2023-02-04T23:33:36.840Z,98959.19
2023-02-04T23:37:40.210Z,98967.53
2023-02-04T23:41:40.954Z,98974.16
2023-02-04T23:45:43.083Z,98842.88
2023-02-04T23:49:44.058Z,98956.84
2023-02-04T23:53:48.362Z,98971.97
2023-02-04T23:57:50.028Z,98971.31
